アルマトイ の空港の天気 - METARとTAF

アルマトイ国際空港 ( UAAA / ALA ) - カザフスタン アルマトイ
飛行場実況気象(Metar)
観測時間05/26 05:30 QYZT (05/26 00:30 UTC)
風向・風速東 2m/s
視程10km以上
天気現象
全天の4割程度の雲 雲底高度 6100m
気温17℃
湿度72%
気圧1013hPa
METARUAAA 260030Z 09002MPS 040V180 9999 SCT200 17/12 Q1013 NOSIG
過去の天気等 Google飛行場航空写真 Wunderground天気予報

過去48時間のMETAR

飛行場予報(TAF)
発表時間: 5/26 04:00 QYZT (5/25 23:00 UTC)
予報対象時間: 26日5時 QYZT ~ 27日5時 QYZT
風向・風速南 3m/s
視程10km以上
少しの積乱雲 雲底高度 1520m
全天の4割程度の雲 雲底高度 3050m
26日8時 QYZT ~ 26日9時 QYZT に徐々に
風向・風速北 3m/s
26日10時 QYZT ~ 26日19時 QYZT に一時的に
風向・風速東 3m/s 瞬間風速 8m/s
26日19時 QYZT ~ 26日20時 QYZT に徐々に
風向・風速南東 3m/s
26日19時 QYZT ~ 26日23時 QYZT に一時的に
風向・風速南 3m/s
視程5000m
天気現象
26日23時 QYZT ~ 27日5時 QYZT に一時的に
風向・風速南南西 3m/s
TAF UAAA 252300Z 2600/2624 17003MPS 9999 FEW050CB SCT100 TX30/2609Z TN15/2601Z
BECMG 2603/2604 01003MPS
TEMPO 2605/2614 08003G08MPS
BECMG 2614/2615 14003MPS
TEMPO 2614/2618 18003MPS 5000 FU
TEMPO 2618/2624 21003MPS